Time;durP1;ratioP1;P1;durP2;ratioP2;P2;SDS_P1;SDS_P2;PMS_P1;PMS_P2;Temp;Humidity;BMP_temperature;BMP_pressure;BME280_temperature;BME280_humidity;BME280_pressure;Samples;Min_cycle;Max_cycle;Signal;HPM_P1;HPM_P2
2021/12/09 00:01:23;;;;;;;16.73;6.13;;;;;;;-142.75;100.00;77143.16;4968141;28;20072;-68
2021/12/09 00:03:52;;;;;;;13.50;5.70;;;;;;;-142.75;100.00;77145.13;4969112;28;20018;-68
2021/12/09 00:06:22;;;;;;;14.60;5.47;;;;;;;-142.75;100.00;77145.13;4969015;28;21059;-69
2021/12/09 00:08:48;;;;;;;15.47;4.67;;;;;;;-142.75;100.00;77156.94;4969049;28;20030;-68
2021/12/09 00:11:13;;;;;;;12.95;4.72;;;;;;;-142.75;100.00;77184.50;4967876;28;20106;-69
2021/12/09 00:13:38;;;;;;;13.27;4.97;;;;;;;-142.75;100.00;77192.38;4968056;28;20035;-68
2021/12/09 00:16:04;;;;;;;18.35;6.47;;;;;;;-142.75;100.00;77192.38;4969504;28;20031;-69
2021/12/09 00:18:30;;;;;;;18.80;5.75;;;;;;;-142.75;100.00;77200.25;4969329;28;20023;-68
2021/12/09 00:20:55;;;;;;;16.73;5.38;;;;;;;-142.75;100.00;77198.28;4971366;28;20023;-68
2021/12/09 00:23:21;;;;;;;19.73;5.88;;;;;;;-142.75;100.00;77200.25;4969148;28;20031;-68
2021/12/09 00:25:46;;;;;;;22.35;6.30;;;;;;;-142.75;100.00;77208.13;4967697;28;20094;-68
2021/12/09 00:28:12;;;;;;;15.40;5.17;;;;;;;-142.75;100.00;77214.03;4969125;28;20054;-67
2021/12/09 00:30:37;;;;;;;11.35;5.07;;;;;;;-142.75;100.00;77229.78;4975866;23;20376;-66
2021/12/09 00:33:04;;;;;;;17.73;6.70;;;;;;;-142.75;100.00;77221.91;4948372;28;20114;-67
2021/12/09 00:35:41;;;;;;;17.30;5.83;;;;;;;-142.75;100.00;77214.03;4964976;28;20027;-66
2021/12/09 00:38:08;;;;;;;16.10;6.07;;;;;;;-142.75;100.00;77212.06;4969146;28;20031;-66
2021/12/09 00:40:34;;;;;;;16.60;5.73;;;;;;;-142.75;100.00;77235.69;5029706;28;20029;-68
2021/12/09 00:43:01;;;;;;;12.07;5.75;;;;;;;-142.75;100.00;77219.94;5070756;28;20032;-66
2021/12/09 00:45:27;;;;;;;14.80;6.20;;;;;;;-142.75;100.00;77214.03;5070685;28;20046;-66
2021/12/09 00:47:52;;;;;;;15.63;5.25;;;;;;;-142.75;100.00;77219.94;5070623;28;20094;-65
2021/12/09 00:50:19;;;;;;;14.20;5.53;;;;;;;-142.75;100.00;77214.03;5070155;28;20492;-67
2021/12/09 00:52:44;;;;;;;;;;;;;;;-142.75;100.00;77210.09;5070945;28;20107;-67
2021/12/09 00:55:10;;;;;;;17.87;5.83;;;;;;;-142.75;100.00;77216.00;5070462;28;20445;-67
2021/12/09 00:57:38;;;;;;;16.35;6.55;;;;;;;-142.75;100.00;77208.13;5070528;28;20032;-67
2021/12/09 01:00:10;;;;;;;15.57;6.27;;;;;;;-142.75;100.00;77212.06;5085371;28;20020;-67
2021/12/09 01:02:37;;;;;;;13.30;5.87;;;;;;;-142.75;100.00;77204.19;5070408;28;21311;-67
2021/12/09 01:05:04;;;;;;;14.73;5.93;;;;;;;-142.75;100.00;77208.13;5068951;28;20029;-67
2021/12/09 01:07:30;;;;;;;21.40;6.10;;;;;;;-142.75;100.00;77210.09;5070294;28;20039;-67
2021/12/09 01:09:55;;;;;;;13.75;5.70;;;;;;;-142.75;100.00;77208.13;5069369;28;20024;-66
2021/12/09 01:12:21;;;;;;;15.57;5.72;;;;;;;-142.75;100.00;77216.00;5070425;28;20034;-67
2021/12/09 01:14:46;;;;;;;20.15;6.40;;;;;;;-142.75;100.00;77204.19;5070271;28;20016;-67
2021/12/09 01:17:12;;;;;;;17.92;5.70;;;;;;;-142.75;100.00;77208.13;5070140;28;20393;-68
2021/12/09 01:19:38;;;;;;;13.45;5.68;;;;;;;-142.75;100.00;77206.16;5069398;28;20052;-66
2021/12/09 01:22:04;;;;;;;19.13;6.10;;;;;;;-142.75;100.00;77200.25;5068620;28;20081;-67
2021/12/09 01:24:29;;;;;;;14.00;5.10;;;;;;;-142.75;100.00;77210.09;5066841;28;20036;-67
2021/12/09 01:26:57;;;;;;;14.20;5.78;;;;;;;-142.75;100.00;77214.03;5070066;28;20056;-66
2021/12/09 01:29:31;;;;;;;19.87;5.43;;;;;;;-142.75;100.00;77210.09;5070003;28;20028;-67
2021/12/09 01:32:01;;;;;;;16.97;5.63;;;;;;;-142.75;100.00;77216.00;5069150;28;20016;-68
2021/12/09 01:34:26;;;;;;;12.43;4.93;;;;;;;-142.75;100.00;77208.13;5068483;28;20021;-67
2021/12/09 01:36:51;;;;;;;10.75;4.80;;;;;;;-142.75;100.00;77212.06;5069709;28;20047;-66
2021/12/09 01:39:18;;;;;;;14.50;5.55;;;;;;;-142.75;100.00;77227.81;5058330;28;20025;-67
2021/12/09 01:41:44;;;;;;;17.90;5.60;;;;;;;-142.75;100.00;77219.94;5049024;28;20574;-67
2021/12/09 01:44:09;;;;;;;15.68;5.40;;;;;;;-142.75;100.00;77223.88;5064252;28;20104;-67
2021/12/09 01:46:35;;;;;;;21.42;6.15;;;;;;;-142.75;100.00;77235.69;5048380;28;20066;-67
2021/12/09 01:49:00;;;;;;;11.10;5.50;;;;;;;-142.75;100.00;77216.00;5048284;28;20032;-67
2021/12/09 01:51:26;;;;;;;16.80;5.32;;;;;;;-142.75;100.00;77233.72;5061869;28;20064;-66
2021/12/09 01:53:52;;;;;;;15.82;5.65;;;;;;;-142.75;100.00;77235.69;5069816;28;20028;-67
2021/12/09 01:56:23;;;;;;;16.20;5.82;;;;;;;-142.75;100.00;77233.72;5069845;28;20024;-66
2021/12/09 01:58:51;;;;;;;15.07;6.23;;;;;;;-142.75;100.00;77243.56;5069730;28;20486;-67
2021/12/09 02:01:17;;;;;;;18.23;5.47;;;;;;;-142.75;100.00;77243.56;5067308;28;20499;-68
2021/12/09 02:03:43;;;;;;;15.70;4.83;;;;;;;-142.75;100.00;77247.50;5052856;28;20094;-68
2021/12/09 02:06:08;;;;;;;20.10;5.90;;;;;;;-142.75;100.00;77235.69;5047980;28;20025;-67
2021/12/09 02:08:33;;;;;;;19.88;5.72;;;;;;;-142.75;100.00;77253.41;5049343;28;20059;-68
2021/12/09 02:10:59;;;;;;;15.52;5.28;;;;;;;-142.75;100.00;77241.59;5048528;28;20116;-67
2021/12/09 02:13:24;;;;;;;14.18;5.28;;;;;;;-142.75;100.00;77249.47;5048058;28;20031;-67
2021/12/09 02:15:53;;;;;;;16.42;5.65;;;;;;;-142.75;100.00;77249.47;5049468;28;20027;-67
2021/12/09 02:18:19;;;;;;;16.43;5.83;;;;;;;-142.75;100.00;77243.56;5048459;28;20541;-67
2021/12/09 02:20:45;;;;;;;18.77;6.00;;;;;;;-142.75;100.00;77239.63;5048329;28;20441;-67
2021/12/09 02:23:12;;;;;;;14.80;5.38;;;;;;;-142.75;100.00;77251.44;5048187;28;20025;-67
2021/12/09 02:25:44;;;;;;;17.57;5.90;;;;;;;-142.75;100.00;77251.44;5049112;28;20021;-68
2021/12/09 02:28:10;;;;;;;24.90;6.20;;;;;;;-142.75;100.00;77257.34;5076495;28;20043;-67
2021/12/09 02:30:35;;;;;;;;;;;;;;;-142.75;100.00;77247.50;5068609;28;20021;-67
2021/12/09 02:33:01;;;;;;;19.13;5.07;;;;;;;-142.75;100.00;77249.47;5068645;28;20001;-67
2021/12/09 02:35:26;;;;;;;16.90;5.63;;;;;;;-142.75;100.00;77239.63;5084615;28;20440;-67
2021/12/09 02:37:51;;;;;;;15.48;5.55;;;;;;;-142.75;100.00;77257.34;5067805;28;20047;-67
2021/12/09 02:40:17;;;;;;;12.18;6.07;;;;;;;-142.75;100.00;77255.38;5084335;28;20035;-66
2021/12/09 02:42:42;;;;;;;13.23;5.60;;;;;;;-142.75;100.00;77271.13;5069332;28;20384;-67
2021/12/09 02:45:10;;;;;;;12.95;5.68;;;;;;;-142.75;100.00;77267.19;5069328;28;20078;-66
2021/12/09 02:47:35;;;;;;;17.30;6.57;;;;;;;-142.75;100.00;77277.03;5084514;28;20120;-67
2021/12/09 02:50:04;;;;;;;21.38;5.65;;;;;;;-142.75;100.00;77280.97;5068320;28;20123;-66
2021/12/09 02:52:29;;;;;;;16.10;5.50;;;;;;;-142.75;100.00;77275.06;5068883;28;20030;-67
2021/12/09 02:54:54;;;;;;;14.63;5.95;;;;;;;-142.75;100.00;77280.97;5069380;28;20104;-67
2021/12/09 02:57:20;;;;;;;20.27;6.18;;;;;;;-142.75;100.00;77277.03;5071866;28;20025;-67
2021/12/09 02:59:45;;;;;;;17.70;6.30;;;;;;;-142.75;100.00;77279.00;5072029;28;20024;-67
2021/12/09 03:02:11;;;;;;;18.20;5.80;;;;;;;-142.75;100.00;77282.94;5071368;28;20404;-67
2021/12/09 03:04:48;;;;;;;18.83;5.43;;;;;;;-142.75;100.00;77271.13;5072612;28;20577;-67
2021/12/09 03:07:23;;;;;;;11.35;4.63;;;;;;;-142.75;100.00;77286.88;5072689;28;20124;-67
2021/12/09 03:09:52;;;;;;;20.03;5.13;;;;;;;-142.75;100.00;77294.75;5071026;28;20409;-67
2021/12/09 03:12:24;;;;;;;14.60;5.50;;;;;;;-142.75;100.00;77290.81;5088322;28;20071;-67
2021/12/09 03:14:50;;;;;;;13.67;5.37;;;;;;;-142.75;100.00;77286.88;5072769;28;20133;-67
2021/12/09 03:17:16;;;;;;;12.90;5.13;;;;;;;-142.75;100.00;77294.75;5072553;28;20570;-67
2021/12/09 03:19:42;;;;;;;16.67;4.50;;;;;;;-142.75;100.00;77296.72;5071403;28;20022;-66
2021/12/09 03:22:07;;;;;;;18.60;6.00;;;;;;;-142.75;100.00;77294.75;5072286;28;20024;-67
2021/12/09 03:24:33;;;;;;;15.80;5.57;;;;;;;-142.75;100.00;77282.94;5070895;28;20024;-67
2021/12/09 03:26:58;;;;;;;21.10;5.65;;;;;;;-142.75;100.00;77298.69;5070894;28;20024;-67
2021/12/09 03:29:27;;;;;;;17.17;6.22;;;;;;;-142.75;100.00;77292.78;5072219;28;20035;-66
2021/12/09 03:31:55;;;;;;;17.30;5.13;;;;;;;-142.75;100.00;77304.59;5071249;28;20020;-66
2021/12/09 03:34:22;;;;;;;12.97;5.30;;;;;;;-142.75;100.00;77292.78;5071146;28;20017;-67
2021/12/09 03:36:50;;;;;;;20.47;6.10;;;;;;;-142.75;100.00;77296.72;5072565;28;20382;-67
2021/12/09 03:39:18;;;;;;;20.27;5.70;;;;;;;-142.75;100.00;77300.66;5087766;28;20029;-67
2021/12/09 03:41:47;;;;;;;19.67;5.57;;;;;;;-142.75;100.00;77290.81;5071157;28;20016;-68
2021/12/09 03:44:12;;;;;;;22.77;5.90;;;;;;;-142.75;100.00;77310.50;5071880;28;20401;-68
2021/12/09 03:46:39;;;;;;;12.32;4.80;;;;;;;-142.75;100.00;77314.44;5070677;28;20021;-67
2021/12/09 03:49:04;;;;;;;12.53;4.47;;;;;;;-142.75;100.00;77298.69;5071749;28;20475;-67
2021/12/09 03:51:30;;;;;;;14.40;4.82;;;;;;;-142.75;100.00;77304.59;5071050;28;20158;-67
2021/12/09 03:53:55;;;;;;;16.42;5.38;;;;;;;-142.75;100.00;77306.56;5071760;28;20017;-67
2021/12/09 03:56:20;;;;;;;17.23;5.30;;;;;;;-142.75;100.00;77314.44;5071986;28;20036;-68
2021/12/09 03:58:46;;;;;;;18.10;5.00;;;;;;;-142.75;100.00;77312.47;5071751;28;20040;-68
2021/12/09 04:01:12;;;;;;;15.15;5.85;;;;;;;-142.75;100.00;77304.59;5070881;28;20035;-67
2021/12/09 04:03:37;;;;;;;13.88;4.65;;;;;;;-142.75;100.00;77302.63;5071638;28;20049;-68
2021/12/09 04:06:02;;;;;;;15.13;5.40;;;;;;;-142.75;100.00;77312.47;5086967;28;20036;-67
2021/12/09 04:08:28;;;;;;;15.32;5.00;;;;;;;-142.75;100.00;77322.31;5070792;28;20029;-67
2021/12/09 04:10:53;;;;;;;15.73;4.55;;;;;;;-142.75;100.00;77322.31;5069152;28;20050;-66
2021/12/09 04:13:19;;;;;;;15.55;4.40;;;;;;;-142.75;100.00;77312.47;5071859;28;20409;-68
2021/12/09 04:15:45;;;;;;;14.25;5.43;;;;;;;-142.75;100.00;77322.31;5071338;28;20028;-67
2021/12/09 04:18:10;;;;;;;17.45;5.82;;;;;;;-142.75;100.00;77310.50;5087019;28;20028;-68
2021/12/09 04:20:37;;;;;;;19.02;5.47;;;;;;;-142.75;100.00;77326.25;5069238;28;20038;-68
2021/12/09 04:23:03;;;;;;;;;;;;;;;-142.75;100.00;77328.22;5071747;28;20032;-67
2021/12/09 04:25:29;;;;;;;16.67;3.88;;;;;;;-142.75;100.00;77326.25;5070939;28;19928;-67
2021/12/09 04:27:55;;;;;;;13.90;4.43;;;;;;;-142.75;100.00;77332.16;5069959;28;20110;-67
2021/12/09 04:30:22;;;;;;;20.83;5.00;;;;;;;-142.75;100.00;77334.13;5070513;28;20383;-68
2021/12/09 04:32:50;;;;;;;21.43;5.00;;;;;;;-142.75;100.00;77318.38;5070370;28;20417;-67
2021/12/09 04:35:15;;;;;;;19.97;5.00;;;;;;;-142.75;100.00;77310.50;5070912;28;20049;-67
2021/12/09 04:37:42;;;;;;;18.05;5.75;;;;;;;-142.75;100.00;77314.44;5071086;28;20107;-67
2021/12/09 04:40:09;;;;;;;20.60;5.40;;;;;;;-142.75;100.00;77334.13;5069990;28;20086;-67
2021/12/09 04:42:35;;;;;;;18.37;4.93;;;;;;;-142.75;100.00;77316.41;5070705;28;20036;-68
2021/12/09 04:45:02;;;;;;;19.83;5.07;;;;;;;-142.75;100.00;77318.38;5070747;28;20142;-68
2021/12/09 04:47:27;;;;;;;;;;;;;;;-142.75;100.00;77312.47;5071220;28;20035;-67
2021/12/09 04:49:52;;;;;;;22.00;5.33;;;;;;;-142.75;100.00;77326.25;5069794;28;19912;-67
2021/12/09 04:52:18;;;;;;;17.50;4.50;;;;;;;-142.75;100.00;77322.31;5071086;28;20070;-68
2021/12/09 04:54:43;;;;;;;22.20;4.68;;;;;;;-142.75;100.00;77334.13;5070462;28;20111;-67
2021/12/09 04:57:11;;;;;;;21.25;4.97;;;;;;;-142.75;100.00;77334.13;5070597;28;20520;-67
2021/12/09 04:59:37;;;;;;;19.10;4.60;;;;;;;-142.75;100.00;77343.97;5070334;28;20024;-68
2021/12/09 05:02:03;;;;;;;;;;;;;;;-142.75;100.00;77332.16;5070574;28;20033;-67
2021/12/09 05:04:29;;;;;;;18.10;5.25;;;;;;;-142.75;100.00;77328.22;5070262;28;19920;-68
2021/12/09 05:06:55;;;;;;;19.07;5.00;;;;;;;-142.75;100.00;77342.00;5070249;28;20024;-67
2021/12/09 05:09:20;;;;;;;21.67;4.80;;;;;;;-142.75;100.00;77343.97;5070542;28;20021;-68
2021/12/09 05:14:12;;;;;;;;;;;;;;;-142.75;100.00;77347.91;5070747;28;20039;-68
2021/12/09 05:16:37;;;;;;;18.10;4.23;;;;;;;-142.75;100.00;77340.03;5070137;28;19916;-68
2021/12/09 05:19:03;;;;;;;16.20;5.07;;;;;;;-142.75;100.00;77355.78;5070061;28;20367;-68
2021/12/09 05:21:36;;;;;;;21.23;5.05;;;;;;;-142.75;100.00;77363.66;5067885;28;20059;-67
2021/12/09 05:24:02;;;;;;;21.20;5.90;;;;;;;-142.75;100.00;77359.72;5069997;28;20032;-67
2021/12/09 05:26:33;;;;;;;;;;;;;;;-142.75;100.00;77342.00;5069090;28;20035;-68
2021/12/09 05:28:58;;;;;;;17.53;4.70;;;;;;;-142.75;100.00;77353.81;5070094;28;20180;-68
2021/12/09 05:34:13;;;;;;;23.27;4.63;;;;;;;-142.75;100.00;77351.84;5069947;28;20086;-66
2021/12/09 05:36:38;;;;;;;14.93;4.53;;;;;;;-142.75;100.00;77355.78;5069802;28;20436;-68
2021/12/09 05:39:08;;;;;;;19.88;5.60;;;;;;;-142.75;100.00;77351.84;5069739;28;20135;-68
2021/12/09 05:41:34;;;;;;;23.27;5.27;;;;;;;-142.75;100.00;77365.63;5067543;28;20478;-67
2021/12/09 05:44:04;;;;;;;16.30;4.57;;;;;;;-142.75;100.00;77373.50;5069756;28;20036;-67
2021/12/09 05:46:30;;;;;;;16.27;5.30;;;;;;;-142.75;100.00;77371.53;5069669;28;20103;-67
2021/12/09 05:48:55;;;;;;;23.88;5.20;;;;;;;-142.75;100.00;77369.56;5069438;28;20111;-67
2021/12/09 05:51:25;;;;;;;15.32;4.90;;;;;;;-142.75;100.00;77381.38;5068941;28;20036;-67
2021/12/09 05:53:51;;;;;;;13.70;4.33;;;;;;;-142.75;100.00;77383.34;5069960;28;20112;-67
2021/12/09 05:56:17;;;;;;;17.42;5.05;;;;;;;-142.75;100.00;77381.38;5085551;28;20390;-67
2021/12/09 05:58:42;;;;;;;17.80;5.35;;;;;;;-142.75;100.00;77373.50;5068241;28;20139;-67
2021/12/09 06:01:07;;;;;;;19.27;5.88;;;;;;;-142.75;100.00;77381.38;5068511;28;20390;-67
2021/12/09 06:03:33;;;;;;;17.02;4.57;;;;;;;-142.75;100.00;77391.22;5069369;28;20109;-67
2021/12/09 06:05:59;;;;;;;12.80;4.90;;;;;;;-142.75;100.00;77393.19;5069314;28;20432;-67
2021/12/09 06:08:25;;;;;;;23.38;5.28;;;;;;;-142.75;100.00;77405.00;5069427;28;20056;-67
2021/12/09 06:10:51;;;;;;;13.75;4.00;;;;;;;-142.75;100.00;77393.19;5084373;28;20438;-68
2021/12/09 06:13:16;;;;;;;13.47;4.67;;;;;;;-142.75;100.00;77405.00;5069616;28;20074;-67
2021/12/09 06:15:42;;;;;;;13.45;5.55;;;;;;;-142.75;100.00;77389.25;5069139;28;20032;-67
2021/12/09 06:18:07;;;;;;;14.50;4.40;;;;;;;-142.75;100.00;77385.31;5069411;28;20539;-68
2021/12/09 06:20:32;;;;;;;16.63;5.22;;;;;;;-142.75;100.00;77385.31;5083890;28;20036;-67
2021/12/09 06:22:58;;;;;;;15.23;5.05;;;;;;;-142.75;100.00;77397.13;5069227;28;20028;-68
2021/12/09 06:25:23;;;;;;;27.73;5.60;;;;;;;-142.75;100.00;77393.19;5067824;28;20024;-67
2021/12/09 06:27:50;;;;;;;14.35;4.55;;;;;;;-142.75;100.00;77393.19;5069521;28;20027;-67
2021/12/09 06:30:18;;;;;;;20.87;5.33;;;;;;;-142.75;100.00;77385.31;5092210;22;20067;-67
2021/12/09 06:32:43;;;;;;;17.80;5.00;;;;;;;-142.75;100.00;77389.25;5025955;28;20033;-67
2021/12/09 06:35:10;;;;;;;15.63;4.32;;;;;;;-142.75;100.00;77397.13;5042620;28;20045;-66
2021/12/09 06:37:39;;;;;;;14.70;4.43;;;;;;;-142.75;100.00;77401.06;5043713;28;20479;-67
2021/12/09 06:40:10;;;;;;;15.70;5.00;;;;;;;-142.75;100.00;77377.44;5037238;28;20419;-67
2021/12/09 06:42:36;;;;;;;14.57;4.90;;;;;;;-142.75;100.00;77401.06;5055717;28;20107;-67
2021/12/09 06:45:01;;;;;;;12.50;5.18;;;;;;;-142.75;100.00;77401.06;5056117;28;20187;-67
2021/12/09 06:47:27;;;;;;;17.70;5.38;;;;;;;-142.75;100.00;77397.13;5038456;28;20483;-67
2021/12/09 06:49:52;;;;;;;16.98;4.72;;;;;;;-142.75;100.00;77395.16;5055610;28;20017;-67
2021/12/09 06:52:18;;;;;;;21.17;5.38;;;;;;;-142.75;100.00;77408.94;5056505;28;20146;-67
2021/12/09 06:54:44;;;;;;;;;;;;;;;-142.75;100.00;77381.38;5056569;28;20032;-67
2021/12/09 06:57:09;;;;;;;14.27;4.27;;;;;;;-142.75;100.00;77393.19;5055797;28;19917;-67
2021/12/09 06:59:34;;;;;;;16.50;5.00;;;;;;;-142.75;100.00;77387.28;5056159;28;20029;-67
2021/12/09 07:02:00;;;;;;;12.35;4.72;;;;;;;-142.75;100.00;77385.31;5055271;28;20286;-68
2021/12/09 07:04:25;;;;;;;14.45;5.28;;;;;;;-142.75;100.00;77399.09;5056427;28;20522;-67
2021/12/09 07:06:51;;;;;;;16.98;4.65;;;;;;;-142.75;100.00;77399.09;5056184;28;20037;-67
2021/12/09 07:09:16;;;;;;;17.83;6.88;;;;;;;-142.75;100.00;77397.13;5055822;28;20475;-67
2021/12/09 07:11:50;;;;;;;14.73;5.13;;;;;;;-142.75;100.00;77397.13;5054922;28;20588;-67
2021/12/09 07:14:16;;;;;;;13.43;4.90;;;;;;;-142.75;100.00;77393.19;5055601;28;20029;-66
2021/12/09 07:16:41;;;;;;;12.43;5.13;;;;;;;-142.75;100.00;77397.13;5055624;28;20474;-67
2021/12/09 07:19:06;;;;;;;15.80;4.15;;;;;;;-142.75;100.00;77408.94;5055628;28;20033;-67
2021/12/09 07:21:31;;;;;;;15.52;4.88;;;;;;;-142.75;100.00;77405.00;5054691;28;20522;-68
2021/12/09 07:23:57;;;;;;;18.00;5.40;;;;;;;-142.75;100.00;77397.13;5037657;28;20028;-66
2021/12/09 07:26:22;;;;;;;15.68;5.40;;;;;;;-142.75;100.00;77399.09;5055374;28;20291;-68
2021/12/09 07:28:47;;;;;;;15.60;5.40;;;;;;;-142.75;100.00;77401.06;5038411;28;20031;-67
2021/12/09 07:31:14;;;;;;;18.58;4.97;;;;;;;-142.75;100.00;77410.91;5054779;28;20029;-67
2021/12/09 07:33:39;;;;;;;;;;;;;;;-142.75;100.00;77428.63;5037695;28;20032;-67
2021/12/09 07:36:05;;;;;;;16.17;5.27;;;;;;;-142.75;100.00;77420.75;5055454;28;19920;-67
2021/12/09 07:38:30;;;;;;;17.27;6.22;;;;;;;-142.75;100.00;77428.63;5055722;28;20112;-67
2021/12/09 07:40:55;;;;;;;15.27;5.75;;;;;;;-142.75;100.00;77434.53;5054508;28;20052;-67
2021/12/09 07:43:21;;;;;;;24.10;5.25;;;;;;;-142.75;100.00;77436.50;5053188;28;20017;-67
2021/12/09 07:45:46;;;;;;;21.27;5.50;;;;;;;-142.75;100.00;77440.44;5052510;28;20406;-67
2021/12/09 07:48:11;;;;;;;18.83;7.22;;;;;;;-142.75;100.00;77444.38;5051963;28;20033;-67
2021/12/09 07:50:38;;;;;;;21.42;10.80;;;;;;;-142.75;100.00;77444.38;5033190;28;20020;-67
2021/12/09 07:53:03;;;;;;;211.13;89.70;;;;;;;-142.75;100.00;77446.34;5032663;28;20029;-68
2021/12/09 07:55:29;;;;;;;31.85;11.75;;;;;;;-142.75;100.00;77442.41;5052014;28;20025;-67
2021/12/09 07:57:55;;;;;;;172.27;103.28;;;;;;;-142.75;100.00;77438.47;5051958;28;20503;-66
2021/12/09 08:00:23;;;;;;;;;;;;;;;-142.75;100.00;77436.50;5051745;28;20021;-68
2021/12/09 08:02:49;;;;;;;23.20;9.50;;;;;;;-142.75;100.00;77436.50;5034175;28;20436;-67
2021/12/09 08:05:16;;;;;;;15.17;5.60;;;;;;;-142.75;100.00;77448.34;5051865;28;20127;-67
2021/12/09 08:07:41;;;;;;;22.80;9.70;;;;;;;-142.75;100.00;77440.44;5053275;28;20436;-66
2021/12/09 08:10:10;;;;;;;37.25;21.40;;;;;;;-142.75;100.00;77434.53;5052727;28;20028;-68
2021/12/09 08:12:37;;;;;;;22.70;7.77;;;;;;;-142.75;100.00;77432.56;5053290;28;20029;-67
2021/12/09 08:15:05;;;;;;;16.87;5.90;;;;;;;-142.75;100.00;77432.56;5053293;28;20039;-67
2021/12/09 08:17:44;;;;;;;19.93;6.23;;;;;;;-142.75;100.00;77428.63;5052370;28;20104;-67
2021/12/09 08:20:16;;;;;;;19.83;6.20;;;;;;;-142.75;100.00;77416.81;5032909;28;20478;-67
2021/12/09 08:22:45;;;;;;;15.17;6.20;;;;;;;-142.75;100.00;77397.13;5051497;28;20025;-67
2021/12/09 08:25:13;;;;;;;20.10;6.90;;;;;;;-142.75;100.00;77365.63;5051215;28;20025;-68
2021/12/09 08:27:40;;;;;;;21.50;6.30;;;;;;;-142.75;100.00;77338.06;5051343;28;20048;-67
2021/12/09 08:30:06;;;;;;;18.27;5.50;;;;;;;-142.75;100.00;77330.19;5050706;28;20035;-66
2021/12/09 08:32:33;;;;;;;16.02;5.18;;;;;;;-142.75;100.00;77310.50;5051212;28;20021;-67
2021/12/09 08:34:58;;;;;;;19.73;6.27;;;;;;;-142.75;100.00;77284.91;5051456;28;20032;-67
2021/12/09 08:37:24;;;;;;;16.33;5.85;;;;;;;-142.75;100.00;77247.50;5051512;28;20025;-66
2021/12/09 08:39:49;;;;;;;15.70;6.03;;;;;;;-142.75;100.00;77231.75;5050825;28;20490;-66
2021/12/09 08:42:15;;;;;;;21.85;6.18;;;;;;;-142.75;100.00;77245.53;5050764;28;20044;-69
2021/12/09 08:44:41;;;;;;;19.40;5.97;;;;;;;-142.75;100.00;77255.38;5050919;28;20566;-67
2021/12/09 08:47:07;;;;;;;15.30;5.32;;;;;;;-142.75;100.00;77279.00;5051153;28;20083;-66
2021/12/09 08:49:32;;;;;;;;;;;;;;;-142.75;100.00;77282.94;5051548;28;20395;-67
2021/12/09 08:51:58;;;;;;;19.70;5.90;;;;;;;-142.75;100.00;77286.88;5031220;28;19913;-66
2021/12/09 08:54:23;;;;;;;15.93;5.43;;;;;;;-142.75;100.00;77296.72;5031596;28;20086;-66
2021/12/09 08:56:51;;;;;;;19.85;6.45;;;;;;;-142.75;100.00;77288.84;5050312;28;20386;-66
2021/12/09 08:59:22;;;;;;;18.27;6.07;;;;;;;-142.75;100.00;77279.00;5050165;28;20035;-66
2021/12/09 09:01:48;;;;;;;20.97;5.80;;;;;;;-142.75;100.00;77279.00;5049090;28;20056;-66
2021/12/09 09:04:13;;;;;;;23.30;6.75;;;;;;;-142.75;100.00;77265.22;5031950;28;20064;-66
2021/12/09 09:06:52;;;;;;;22.50;6.80;;;;;;;-142.75;100.00;77219.94;5049513;28;20048;-66
2021/12/09 09:09:17;;;;;;;21.33;5.90;;;;;;;-142.75;100.00;77208.13;5050156;28;20500;-66
2021/12/09 09:11:43;;;;;;;19.45;5.68;;;;;;;-142.75;100.00;77208.13;5048749;28;20116;-66
2021/12/09 09:14:08;;;;;;;17.52;6.38;;;;;;;-142.75;100.00;77196.31;5049470;28;20083;-68
2021/12/09 09:16:33;;;;;;;17.08;6.13;;;;;;;-142.75;100.00;77196.31;5049673;28;20021;-67
2021/12/09 09:18:59;;;;;;;20.50;7.10;;;;;;;-142.75;100.00;77204.19;5049740;28;20078;-66
2021/12/09 09:21:25;;;;;;;17.33;6.23;;;;;;;-142.75;100.00;77221.91;5029349;28;20107;-66
2021/12/09 09:23:51;;;;;;;22.27;6.57;;;;;;;-142.75;100.00;77225.84;5049908;28;20271;-66
2021/12/09 09:26:16;;;;;;;16.45;7.05;;;;;;;-142.75;100.00;77243.56;5031580;28;20025;-66
2021/12/09 09:28:42;;;;;;;22.17;6.90;;;;;;;-142.75;100.00;77235.69;5049014;28;20215;-67
2021/12/09 09:31:08;;;;;;;24.20;7.03;;;;;;;-142.75;100.00;77249.47;5048607;28;20047;-66
2021/12/09 09:33:34;;;;;;;20.43;7.83;;;;;;;-142.75;100.00;77243.56;5049358;28;20478;-66
2021/12/09 09:36:00;;;;;;;24.20;7.80;;;;;;;-142.75;100.00;77243.56;5031107;28;20040;-66
2021/12/09 09:38:26;;;;;;;;;;;;;;;-142.75;100.00;77235.69;5049794;28;20028;-66
2021/12/09 09:41:15;;;;;;;26.47;7.80;;;;;;;-142.75;100.00;77235.69;5048658;28;19924;-67
2021/12/09 09:46:21;;;;;;;20.67;6.93;;;;;;;-142.75;100.00;77239.63;5048785;28;20474;-67
2021/12/09 09:48:49;;;;;;;23.37;7.90;;;;;;;-142.75;100.00;77247.50;5048888;28;20098;-66
2021/12/09 09:51:16;;;;;;;20.90;8.00;;;;;;;-142.75;100.00;77233.72;5047869;28;20167;-66
2021/12/09 09:53:42;;;;;;;23.40;7.50;;;;;;;-142.75;100.00;77223.88;5030984;28;20482;-66
2021/12/09 09:56:14;;;;;;;22.70;7.68;;;;;;;-142.75;100.00;77221.91;5048641;28;20036;-66
2021/12/09 09:58:42;;;;;;;24.77;7.90;;;;;;;-142.75;100.00;77223.88;5030626;28;20025;-67
2021/12/09 10:01:08;;;;;;;22.03;8.17;;;;;;;-142.75;100.00;77233.72;5047918;28;20482;-67
2021/12/09 10:03:40;;;;;;;25.42;8.25;;;;;;;-142.75;100.00;77243.56;5030833;28;20028;-67
2021/12/09 10:06:05;;;;;;;17.50;7.97;;;;;;;-142.75;100.00;77247.50;5047589;28;20047;-67
2021/12/09 10:08:32;;;;;;;25.25;8.88;;;;;;;-142.75;100.00;77239.63;5048575;28;20478;-67
2021/12/09 10:10:57;;;;;;;26.53;8.47;;;;;;;-142.75;100.00;77239.63;5047615;28;20941;-67
2021/12/09 10:13:29;;;;;;;21.13;8.70;;;;;;;-142.75;100.00;77225.84;5048973;28;20033;-68
2021/12/09 10:15:54;;;;;;;30.37;9.33;;;;;;;-142.75;100.00;77225.84;5046009;28;20023;-67
2021/12/09 10:18:32;;;;;;;25.30;9.07;;;;;;;-142.75;100.00;77212.06;5048761;28;20024;-67
2021/12/09 10:20:57;;;;;;;27.37;9.97;;;;;;;-142.75;100.00;77216.00;5045633;28;20028;-66
2021/12/09 10:23:35;;;;;;;37.17;15.87;;;;;;;-142.75;100.00;77190.41;5030879;28;20128;-67
2021/12/09 10:26:28;;;;;;;37.88;20.52;;;;;;;-142.75;100.00;77200.25;5030683;28;20028;-66
2021/12/09 10:29:07;;;;;;;34.60;21.17;;;;;;;-142.75;100.00;77219.94;5044588;28;20079;-67
2021/12/09 10:32:00;;;;;;;50.53;24.17;;;;;;;-142.75;100.00;77212.06;5029567;28;20388;-67
2021/12/09 10:37:21;;;;;;;25.63;11.27;;;;;;;-142.75;100.00;77192.38;5047819;28;20553;-68
2021/12/09 10:39:54;;;;;;;25.67;11.13;;;;;;;-142.75;100.00;77184.50;5047524;28;20043;-67
2021/12/09 10:42:26;;;;;;;26.20;11.53;;;;;;;-142.75;100.00;77194.34;5030320;28;20049;-68
2021/12/09 10:45:01;;;;;;;28.33;12.57;;;;;;;-142.75;100.00;77196.31;5047938;28;20072;-68
2021/12/09 10:51:04;;;;;;;32.27;12.47;;;;;;;-142.75;100.00;77192.38;5047110;28;20032;-67
2021/12/09 10:53:45;;;;;;;34.33;15.10;;;;;;;-142.75;100.00;77188.44;5048043;28;20036;-67
2021/12/09 10:56:11;;;;;;;29.00;14.23;;;;;;;-142.75;100.00;77184.50;5047978;28;20092;-67
2021/12/09 10:58:39;;;;;;;26.80;13.55;;;;;;;-142.75;100.00;77180.56;5028229;28;20132;-68
2021/12/09 11:01:08;;;;;;;28.27;12.73;;;;;;;-142.75;100.00;77200.25;5047145;28;20031;-68
2021/12/09 11:03:35;;;;;;;29.50;14.60;;;;;;;-142.75;100.00;77168.75;5047895;28;20021;-67
2021/12/09 11:06:04;;;;;;;33.33;15.37;;;;;;;-142.75;100.00;77166.78;5047526;28;20033;-67
2021/12/09 11:08:32;;;;;;;31.07;16.10;;;;;;;-142.75;100.00;77176.63;5030030;28;20064;-67
2021/12/09 11:11:32;;;;;;;44.47;21.63;;;;;;;-142.75;100.00;77160.88;5046825;28;20025;-68
2021/12/09 11:13:58;;;;;;;35.33;17.97;;;;;;;-142.75;100.00;77162.84;5030121;28;20383;-68
2021/12/09 11:16:37;;;;;;;40.53;20.80;;;;;;;-142.75;100.00;77137.25;5047981;28;20104;-68
2021/12/09 11:19:18;;;;;;;35.23;16.37;;;;;;;-142.75;100.00;77137.25;5051826;28;20059;-67